Baltic Marshall — C4KD2 — position and weather

sailwx.info

Track history (hours):
 
Tides and Currents Weather Stations Pressure Air Temp Water Temp Dewpoint Dewpoint Depression Visibility Wind Speed Wind Dir Waves Ship Positions

Baltic Marshall

Last reported at 2016-Feb-10 19:24 UTC. Time now 2016-Feb-11 02:29 UTC.
Position N 37°25' E 015°40'.

Length 183 m; draft 10.1 m.

Type: Ship. MMSI: 212118000.

Date/timePositionNaut miles runAvg speedWind from/ knotsBaromVisibWave heightAir tempDewpointWater temp
2016-Feb-10 19:24N 37°25' E 015°40'3 0.7
2016-Feb-10 15:05N 37°23' E 015°41'  
2016-Feb-05 15:09N 46°35' E 031°20'810.3
2016-Feb-05 14:24N 46°35' E 031°31'910.8
2016-Feb-05 13:33N 46°36' E 031°45'10 9.6
2016-Feb-05 12:33N 46°41' E 031°56'9 9.2
2016-Feb-05 11:33N 46°51' E 031°56'6 6.5
2016-Feb-05 10:33N 46°56' E 032°01'0 0.0
2016-Feb-05 09:31N 46°56' E 032°01'0 0.0
2016-Feb-03 17:32N 46°56' E 032°01'0 0.2
2016-Feb-03 16:34N 46°56' E 032°01'2 2.1
2016-Feb-03 15:33N 46°54' E 032°01'1110.6
2016-Feb-03 14:34N 46°44' E 031°55'1010.0
2016-Feb-03 13:34N 46°36' E 031°47'1110.5
2016-Feb-03 12:33N 46°35' E 031°32'5 0.5
2016-Feb-03 02:06N 46°34' E 031°25'0 0.0
2016-Feb-03 01:24N 46°34' E 031°25'6 7.4
2016-Feb-03 00:33N 46°35' E 031°16'349 7.0
2016-Jan-31 22:30N 40°60' E 028°60'9 9.9
2016-Jan-31 21:33N 40°52' E 028°53'  
Track history (hours):
 
Tides and Currents Weather Stations Pressure Air Temp Water Temp Dewpoint Dewpoint Depression Visibility Wind Speed Wind Dir Waves Ship Positions

Baltic Marshall

Last reported at 2016-Feb-10 19:24 UTC. Time now 2016-Feb-11 02:29 UTC.
Position N 37°25' E 015°40'.

Length 183 m; draft 10.1 m.

Type: Ship. MMSI: 212118000.

Date/timePositionNaut miles runAvg speedWind from/ knotsBaromVisibWave heightAir tempDewpointWater temp
2016-Feb-10 19:24N 37°25' E 015°40'3 0.7
2016-Feb-10 15:05N 37°23' E 015°41'  
2016-Feb-05 15:09N 46°35' E 031°20'810.3
2016-Feb-05 14:24N 46°35' E 031°31'910.8
2016-Feb-05 13:33N 46°36' E 031°45'10 9.6
2016-Feb-05 12:33N 46°41' E 031°56'9 9.2
2016-Feb-05 11:33N 46°51' E 031°56'6 6.5
2016-Feb-05 10:33N 46°56' E 032°01'0 0.0
2016-Feb-05 09:31N 46°56' E 032°01'0 0.0
2016-Feb-03 17:32N 46°56' E 032°01'0 0.2
2016-Feb-03 16:34N 46°56' E 032°01'2 2.1
2016-Feb-03 15:33N 46°54' E 032°01'1110.6
2016-Feb-03 14:34N 46°44' E 031°55'1010.0
2016-Feb-03 13:34N 46°36' E 031°47'1110.5
2016-Feb-03 12:33N 46°35' E 031°32'5 0.5
2016-Feb-03 02:06N 46°34' E 031°25'0 0.0
2016-Feb-03 01:24N 46°34' E 031°25'6 7.4
2016-Feb-03 00:33N 46°35' E 031°16'349 7.0
2016-Jan-31 22:30N 40°60' E 028°60'9 9.9
2016-Jan-31 21:33N 40°52' E 028°53'  

Dump ship's entire track history